Time;durP1;ratioP1;P1;durP2;ratioP2;P2;SDS_P1;SDS_P2;PMS_P1;PMS_P2;Temp;Humidity;BMP_temperature;BMP_pressure;BME280_temperature;BME280_humidity;BME280_pressure;Samples;Min_cycle;Max_cycle;Signal;HPM_P1;HPM_P2
2022/04/07 00:00:50;;;;;;;10.25;7.90;;;;;;;9.44;65.51;99883.50;5031010;28;20400;-76
2022/04/07 00:03:16;;;;;;;10.32;7.90;;;;;;;9.34;65.76;99890.06;5031356;28;20033;-77
2022/04/07 00:05:41;;;;;;;12.27;8.13;;;;;;;9.15;65.86;99866.28;5031110;28;20448;-77
2022/04/07 00:08:07;;;;;;;14.18;8.00;;;;;;;9.34;65.89;99883.19;5030829;28;20390;-77
2022/04/07 00:10:34;;;;;;;12.88;8.00;;;;;;;9.05;67.09;99885.69;5029905;28;20485;-79
2022/04/07 00:13:00;;;;;;;11.98;8.20;;;;;;;9.15;66.97;99886.03;5030488;28;20036;-79
2022/04/07 00:15:26;;;;;;;13.23;8.23;;;;;;;9.04;67.35;99873.63;5038635;28;20041;-79
2022/04/07 00:17:52;;;;;;;13.88;8.35;;;;;;;9.11;66.95;99884.16;5032253;28;20033;-78
2022/04/07 00:20:18;;;;;;;13.90;7.88;;;;;;;9.09;67.00;99873.81;5043510;28;20164;-77
2022/04/07 00:22:44;;;;;;;10.98;8.15;;;;;;;8.93;67.39;99856.09;5030038;28;20064;-77
2022/04/07 00:25:10;;;;;;;14.73;10.18;;;;;;;9.04;67.08;99872.78;5029183;28;20083;-78
2022/04/07 00:27:35;;;;;;;18.75;10.40;;;;;;;9.00;67.14;99863.22;5030208;28;20827;-77
2022/04/07 00:30:02;;;;;;;12.15;9.20;;;;;;;8.92;67.14;99852.63;5029810;28;20040;-76
2022/04/07 00:32:28;;;;;;;13.98;8.32;;;;;;;8.93;67.17;99845.81;5033443;28;20401;-79
2022/04/07 00:34:54;;;;;;;16.73;8.27;;;;;;;8.86;67.46;99844.69;5035107;28;20040;-78
2022/04/07 00:37:23;;;;;;;13.23;8.27;;;;;;;8.92;68.17;99852.63;5030064;28;20032;-80
2022/04/07 00:39:49;;;;;;;12.57;8.73;;;;;;;8.90;69.40;99821.69;5030450;28;20594;-75
2022/04/07 00:42:14;;;;;;;14.73;8.05;;;;;;;9.13;69.89;99852.47;5030603;28;20022;-75
2022/04/07 00:44:40;;;;;;;11.95;8.90;;;;;;;9.07;71.38;99844.53;5011912;28;20520;-75
2022/04/07 00:47:07;;;;;;;11.52;8.68;;;;;;;8.99;71.58;99848.59;5030217;28;20021;-77
2022/04/07 00:49:33;;;;;;;10.43;8.18;;;;;;;8.93;71.48;99838.94;5029913;28;20033;-77
2022/04/07 00:51:59;;;;;;;16.10;9.60;;;;;;;8.97;71.24;99827.94;5028764;28;20047;-79
2022/04/07 00:54:25;;;;;;;17.30;9.60;;;;;;;9.14;73.03;99828.47;5030064;28;20042;-75
2022/04/07 00:56:53;;;;;;;12.82;9.20;;;;;;;9.29;71.28;99810.06;5029303;28;20032;-79
2022/04/07 00:59:21;;;;;;;21.67;11.10;;;;;;;9.36;69.61;99816.28;5012083;28;20132;-80
2022/04/07 01:01:47;;;;;;;15.82;10.07;;;;;;;9.25;70.00;99825.41;5029732;28;20029;-77
2022/04/07 01:04:12;;;;;;;15.02;8.48;;;;;;;8.73;69.71;99812.53;5029240;28;20091;-78
2022/04/07 01:06:40;;;;;;;11.10;8.00;;;;;;;8.57;69.86;99819.75;5029609;28;20030;-80
2022/04/07 01:09:06;;;;;;;12.77;7.70;;;;;;;8.65;69.03;99814.88;5011858;28;20025;-79
2022/04/07 01:11:34;;;;;;;9.65;8.10;;;;;;;8.72;68.58;99819.41;5012407;28;20025;-77
2022/04/07 01:14:00;;;;;;;15.52;8.23;;;;;;;8.46;68.99;99810.78;5030752;28;20037;-77
2022/04/07 01:16:27;;;;;;;11.02;7.75;;;;;;;8.10;69.59;99772.63;5030147;28;20030;-76
2022/04/07 01:18:53;;;;;;;11.63;8.20;;;;;;;8.34;69.39;99812.91;5029780;28;20083;-75
2022/04/07 01:21:19;;;;;;;10.95;8.32;;;;;;;7.85;70.26;99771.75;5034641;28;20029;-75
2022/04/07 01:24:09;;;;;;;12.23;8.18;;;;;;;7.88;70.98;99812.09;5014609;28;20037;-75
2022/04/07 01:26:37;;;;;;;13.25;8.35;;;;;;;7.61;72.39;99806.00;4930690;29;20051;-75
2022/04/07 01:29:07;;;;;;;13.77;8.40;;;;;;;7.16;73.24;99756.28;4930781;29;20032;-75
2022/04/07 01:31:33;;;;;;;14.52;7.82;;;;;;;7.25;72.43;99793.47;4930447;29;20520;-75
2022/04/07 01:34:00;;;;;;;10.93;8.18;;;;;;;7.18;72.86;99809.44;4931014;29;20039;-76
2022/04/07 01:36:30;;;;;;;11.55;7.85;;;;;;;7.10;73.08;99797.97;4930653;29;20040;-75
2022/04/07 01:39:00;;;;;;;11.88;8.48;;;;;;;7.06;73.22;99790.97;4930696;29;20039;-76
2022/04/07 01:41:26;;;;;;;16.00;11.38;;;;;;;7.10;73.16;99788.63;4930955;29;20847;-77
2022/04/07 01:43:55;;;;;;;19.95;13.00;;;;;;;7.15;72.90;99777.63;4948236;28;20031;-79
2022/04/07 01:46:21;;;;;;;24.05;16.02;;;;;;;7.06;73.33;99783.28;4949136;28;20031;-80
2022/04/07 01:48:47;;;;;;;27.27;17.17;;;;;;;6.83;74.57;99761.81;4949088;28;20039;-80
2022/04/07 01:51:14;;;;;;;20.90;14.23;;;;;;;6.89;74.90;99777.47;4948898;28;20082;-79
2022/04/07 01:53:41;;;;;;;18.00;10.35;;;;;;;6.78;75.66;99780.47;4949071;28;20050;-79
2022/04/07 01:56:09;;;;;;;14.30;9.15;;;;;;;6.80;75.32;99770.28;4949060;28;20114;-80
2022/04/07 01:58:36;;;;;;;16.10;9.15;;;;;;;6.79;75.04;99768.50;4948645;28;20042;-81
2022/04/07 02:01:03;;;;;;;12.60;8.98;;;;;;;6.66;75.48;99753.47;4948681;28;20027;-78
2022/04/07 02:03:28;;;;;;;12.90;8.82;;;;;;;6.69;75.32;99743.31;4990073;28;20033;-83
2022/04/07 02:05:54;;;;;;;19.10;12.82;;;;;;;6.77;75.47;99742.81;5015125;28;20623;-80
2022/04/07 02:08:19;;;;;;;16.55;10.32;;;;;;;6.66;76.34;99750.91;5040245;28;20053;-75
2022/04/07 02:10:44;;;;;;;16.27;10.70;;;;;;;6.56;78.30;99734.25;5053420;28;20025;-76
2022/04/07 02:13:10;;;;;;;19.42;14.57;;;;;;;6.55;79.41;99728.22;5053061;28;20730;-76
2022/04/07 02:15:35;;;;;;;19.35;13.65;;;;;;;6.62;80.25;99724.25;5050811;28;20519;-78
2022/04/07 02:18:02;;;;;;;18.70;13.27;;;;;;;6.55;81.03;99720.53;5032720;28;20029;-77
2022/04/07 02:20:27;;;;;;;16.05;10.65;;;;;;;6.65;80.44;99729.47;5033571;28;20188;-79
2022/04/07 02:22:53;;;;;;;17.92;10.10;;;;;;;6.72;79.70;99728.91;5016284;28;20470;-78
2022/04/07 02:25:22;;;;;;;12.68;9.48;;;;;;;6.72;77.88;99712.66;5032223;28;20139;-78
2022/04/07 02:27:49;;;;;;;12.75;9.00;;;;;;;6.66;77.54;99705.59;5031015;28;20140;-78
2022/04/07 02:30:15;;;;;;;13.68;8.93;;;;;;;6.82;77.15;99704.50;5032151;28;20033;-79
2022/04/07 02:32:42;;;;;;;12.15;8.90;;;;;;;6.76;76.94;99711.97;5040412;28;20029;-79
2022/04/07 02:35:08;;;;;;;14.43;9.23;;;;;;;6.57;76.36;99654.81;5032954;28;20022;-76
2022/04/07 02:37:34;;;;;;;16.95;8.75;;;;;;;6.45;75.68;99636.34;5031919;28;20037;-79
2022/04/07 02:39:59;;;;;;;15.93;8.90;;;;;;;6.50;77.01;99687.84;5031945;28;20372;-79
2022/04/07 02:42:25;;;;;;;15.68;8.32;;;;;;;6.58;76.58;99682.19;5031772;28;20088;-80
2022/04/07 02:44:50;;;;;;;12.73;9.45;;;;;;;6.52;76.21;99666.56;5032197;28;20041;-80
2022/04/07 02:47:17;;;;;;;23.45;9.48;;;;;;;6.46;76.82;99667.19;5032809;28;20034;-76
2022/04/07 02:49:42;;;;;;;16.77;10.70;;;;;;;6.49;77.44;99651.03;5032277;28;20061;-79
2022/04/07 02:52:09;;;;;;;17.33;9.93;;;;;;;6.49;77.52;99661.31;5045077;28;20071;-79
2022/04/07 02:54:35;;;;;;;12.40;9.55;;;;;;;6.31;78.31;99664.88;5051356;28;20050;-80
2022/04/07 02:57:01;;;;;;;13.50;10.05;;;;;;;6.28;78.43;99671.56;5034274;28;20037;-78
2022/04/07 02:59:27;;;;;;;14.02;9.38;;;;;;;6.46;77.32;99654.38;5052483;28;20493;-76
2022/04/07 03:01:53;;;;;;;15.48;9.68;;;;;;;6.70;75.99;99651.03;5052852;28;20029;-75
2022/04/07 03:04:19;;;;;;;12.93;8.95;;;;;;;7.00;74.70;99658.16;5052847;28;20394;-77
2022/04/07 03:06:45;;;;;;;12.57;8.35;;;;;;;6.81;73.88;99654.00;5052196;28;20029;-80
2022/04/07 03:09:11;;;;;;;13.32;9.38;;;;;;;6.44;74.57;99602.16;5050776;28;20021;-75
2022/04/07 03:11:36;;;;;;;14.63;8.90;;;;;;;6.34;74.64;99605.16;5051071;28;20389;-75
2022/04/07 03:14:02;;;;;;;17.95;9.52;;;;;;;6.64;75.14;99636.28;5051611;28;20389;-77
2022/04/07 03:16:27;;;;;;;15.50;9.23;;;;;;;6.56;74.60;99623.97;5052234;28;20035;-76
2022/04/07 03:18:53;;;;;;;16.17;10.52;;;;;;;6.28;75.79;99625.41;5051930;28;20037;-75
2022/04/07 03:21:18;;;;;;;17.63;10.15;;;;;;;6.04;77.34;99602.25;5052049;28;20029;-75
2022/04/07 03:23:44;;;;;;;12.10;9.30;;;;;;;5.59;78.35;99573.03;5051775;28;20037;-75
2022/04/07 03:26:09;;;;;;;15.88;10.40;;;;;;;5.57;80.23;99601.94;5016474;28;20041;-75
2022/04/07 03:28:35;;;;;;;15.82;10.73;;;;;;;5.38;80.98;99587.50;5052134;28;20029;-76
2022/04/07 03:31:00;;;;;;;15.30;10.95;;;;;;;5.58;80.64;99589.25;5051782;28;20031;-76
2022/04/07 03:33:26;;;;;;;19.20;11.00;;;;;;;5.45;80.04;99574.16;5033919;28;20385;-75
2022/04/07 03:35:51;;;;;;;13.77;9.68;;;;;;;5.45;81.53;99599.75;5051809;28;20115;-76
2022/04/07 03:38:17;;;;;;;14.18;9.65;;;;;;;5.13;83.24;99602.63;5033937;28;20033;-77
2022/04/07 03:40:42;;;;;;;17.70;9.60;;;;;;;4.94;83.45;99608.59;5051357;28;20178;-76
2022/04/07 03:43:08;;;;;;;18.08;10.65;;;;;;;4.58;85.69;99623.13;5051653;28;20029;-76
2022/04/07 03:45:33;;;;;;;13.73;9.93;;;;;;;4.34;87.59;99613.50;5051768;28;20040;-74
2022/04/07 03:47:58;;;;;;;19.88;11.10;;;;;;;4.32;88.36;99621.06;5051583;28;20029;-76
2022/04/07 03:50:24;;;;;;;16.60;10.70;;;;;;;4.66;86.95;99603.88;5049517;28;20036;-77
2022/04/07 03:52:50;;;;;;;21.80;10.95;;;;;;;4.88;86.18;99587.84;5029537;28;20056;-76
2022/04/07 03:55:16;;;;;;;19.98;12.15;;;;;;;5.00;85.50;99580.75;5030952;28;20049;-79
2022/04/07 03:57:42;;;;;;;17.05;11.52;;;;;;;4.84;85.26;99533.13;5031368;28;20123;-76
2022/04/07 04:00:08;;;;;;;16.80;11.63;;;;;;;5.10;85.50;99570.94;5031098;28;20021;-76
2022/04/07 04:02:33;;;;;;;23.30;11.57;;;;;;;5.29;84.65;99580.28;5045557;28;20041;-74
2022/04/07 04:04:58;;;;;;;17.48;11.38;;;;;;;5.16;84.13;99555.84;5036968;28;20032;-76
2022/04/07 04:07:24;;;;;;;18.75;11.10;;;;;;;5.45;83.67;99585.25;5030332;28;20036;-75
2022/04/07 04:09:49;;;;;;;20.30;12.02;;;;;;;5.62;82.07;99570.63;5030973;28;20029;-76
2022/04/07 04:12:15;;;;;;;18.35;11.43;;;;;;;5.57;81.87;99566.09;5031098;28;20448;-76
2022/04/07 04:14:40;;;;;;;26.08;10.52;;;;;;;5.65;82.36;99578.41;5031246;28;20104;-76
2022/04/07 04:17:06;;;;;;;39.15;23.65;;;;;;;5.22;82.41;99522.88;5030895;28;20021;-77
2022/04/07 04:19:33;;;;;;;26.23;16.08;;;;;;;5.54;82.78;99577.09;5031179;28;20017;-76
2022/04/07 04:21:59;;;;;;;16.15;11.70;;;;;;;5.34;82.54;99536.16;5031375;28;20032;-75
2022/04/07 04:24:24;;;;;;;21.55;11.55;;;;;;;5.40;83.33;99579.06;5030210;28;20021;-78
2022/04/07 04:26:49;;;;;;;19.70;12.45;;;;;;;5.49;83.67;99576.03;5030376;28;20689;-78
2022/04/07 04:29:15;;;;;;;17.45;12.50;;;;;;;5.53;83.29;99567.66;5031041;28;20040;-77
2022/04/07 04:31:40;;;;;;;22.90;14.13;;;;;;;5.51;83.91;99567.59;5030998;28;20033;-78
2022/04/07 04:34:06;;;;;;;20.25;13.15;;;;;;;5.48;83.95;99564.03;5030724;28;20087;-75
2022/04/07 04:36:33;;;;;;;18.88;12.70;;;;;;;5.60;83.74;99559.44;5031079;28;20037;-75
2022/04/07 04:38:59;;;;;;;17.55;11.65;;;;;;;5.55;82.30;99519.97;5030409;28;20488;-75
2022/04/07 04:41:24;;;;;;;22.98;13.43;;;;;;;5.71;82.48;99530.81;5030825;28;20100;-76
2022/04/07 04:43:50;;;;;;;19.50;12.88;;;;;;;5.88;81.89;99531.53;5030715;28;20017;-77
2022/04/07 04:46:15;;;;;;;20.52;14.63;;;;;;;6.18;80.95;99564.34;5030583;28;20703;-78
2022/04/07 04:48:41;;;;;;;21.75;15.95;;;;;;;6.28;81.48;99567.34;5030723;28;20044;-77
2022/04/07 04:51:06;;;;;;;21.23;15.45;;;;;;;6.42;81.12;99560.19;5031371;28;20040;-76
2022/04/07 04:53:32;;;;;;;20.60;12.98;;;;;;;6.47;81.63;99539.88;5030664;28;20033;-77
2022/04/07 04:55:57;;;;;;;18.98;13.23;;;;;;;6.55;82.17;99543.59;5030569;28;20046;-78
2022/04/07 04:58:23;;;;;;;20.02;11.80;;;;;;;6.56;82.82;99547.03;5030711;28;20040;-77
2022/04/07 05:00:48;;;;;;;36.80;15.25;;;;;;;6.49;82.33;99538.22;5030847;28;20037;-77
2022/04/07 05:03:14;;;;;;;39.10;16.25;;;;;;;6.50;83.80;99537.41;5030668;28;20033;-75
2022/04/07 05:05:39;;;;;;;24.63;15.50;;;;;;;6.48;84.98;99529.66;5030665;28;20060;-76
2022/04/07 05:08:06;;;;;;;25.15;13.80;;;;;;;6.21;87.08;99491.03;5030171;28;20033;-76
2022/04/07 05:10:32;;;;;;;24.35;14.63;;;;;;;6.43;88.20;99527.72;5030540;28;20025;-76
2022/04/07 05:12:58;;;;;;;22.58;15.32;;;;;;;6.28;87.74;99484.44;5030412;28;20036;-76
2022/04/07 05:15:24;;;;;;;22.85;14.90;;;;;;;6.31;87.27;99518.75;5030380;28;20025;-77
2022/04/07 05:17:51;;;;;;;23.00;15.63;;;;;;;6.45;87.98;99533.81;5030745;28;20057;-76
2022/04/07 05:20:17;;;;;;;22.63;14.75;;;;;;;6.46;87.61;99530.44;5008224;28;20141;-75
2022/04/07 05:22:43;;;;;;;21.48;15.40;;;;;;;6.62;87.94;99537.03;5007848;28;20043;-75
2022/04/07 05:25:10;;;;;;;23.30;15.63;;;;;;;6.71;89.11;99529.66;5024729;28;20076;-76
2022/04/07 05:27:36;;;;;;;22.42;15.70;;;;;;;6.82;86.19;99527.50;5008410;28;20040;-76
2022/04/07 05:30:15;;;;;;;28.02;16.35;;;;;;;6.84;85.74;99497.66;5008485;28;20034;-78
2022/04/07 05:32:41;;;;;;;28.70;16.90;;;;;;;6.99;86.04;99511.81;5008176;28;20433;-75
2022/04/07 05:35:08;;;;;;;28.17;17.33;;;;;;;7.02;85.60;99486.28;5008112;28;20030;-77
2022/04/07 05:37:34;;;;;;;35.40;18.40;;;;;;;7.18;85.85;99488.56;5008789;28;20045;-77
2022/04/07 05:39:59;;;;;;;26.25;17.40;;;;;;;7.17;84.43;99471.41;5012214;28;20033;-76
2022/04/07 05:42:25;;;;;;;29.88;17.35;;;;;;;7.42;83.20;99493.66;4995621;28;20456;-75
2022/04/07 05:44:50;;;;;;;27.70;16.45;;;;;;;7.49;84.26;99476.78;4995688;28;20042;-74
2022/04/07 05:47:15;;;;;;;23.00;16.58;;;;;;;7.59;84.55;99476.25;4995502;28;20049;-75
2022/04/07 05:49:41;;;;;;;32.90;16.90;;;;;;;7.59;82.14;99481.38;5011281;28;20493;-76
2022/04/07 05:52:07;;;;;;;25.30;16.42;;;;;;;7.68;83.77;99485.09;5011742;28;20426;-78
2022/04/07 05:54:32;;;;;;;20.77;16.33;;;;;;;7.72;82.57;99476.66;5011743;28;20065;-76
2022/04/07 05:56:58;;;;;;;27.05;17.75;;;;;;;7.80;82.59;99471.75;5008322;28;20481;-78
2022/04/07 05:59:23;;;;;;;25.85;18.17;;;;;;;7.81;83.67;99458.94;4999083;28;20457;-79
2022/04/07 06:01:49;;;;;;;41.40;24.75;;;;;;;7.57;83.44;99408.53;5014013;28;20087;-78
2022/04/07 06:04:15;;;;;;;39.10;19.58;;;;;;;7.83;82.94;99475.28;5013813;28;20501;-79
2022/04/07 06:06:40;;;;;;;29.05;18.02;;;;;;;7.57;83.07;99439.34;5014008;28;20057;-78
2022/04/07 06:09:06;;;;;;;31.33;19.00;;;;;;;7.65;83.23;99433.59;5014101;28;20088;-78
2022/04/07 06:11:32;;;;;;;32.80;17.90;;;;;;;7.57;83.19;99390.56;5013856;28;20029;-78
2022/04/07 06:13:57;;;;;;;27.60;18.98;;;;;;;7.97;82.80;99436.31;5014343;28;20455;-79
2022/04/07 06:16:23;;;;;;;27.75;18.60;;;;;;;8.05;82.46;99429.69;5013740;28;20026;-78
2022/04/07 06:18:48;;;;;;;24.40;18.50;;;;;;;7.97;83.11;99382.34;5013714;28;20030;-78
2022/04/07 06:21:14;;;;;;;24.02;17.25;;;;;;;8.13;84.29;99369.09;5013961;28;20481;-78
2022/04/07 06:23:39;;;;;;;28.20;18.20;;;;;;;8.48;83.67;99388.97;5014105;28;20397;-77
2022/04/07 06:26:06;;;;;;;28.42;17.20;;;;;;;8.69;81.99;99404.13;5012254;28;20383;-78
2022/04/07 06:28:31;;;;;;;34.95;17.85;;;;;;;8.78;82.06;99388.94;5013329;28;20524;-79
2022/04/07 06:30:56;;;;;;;24.67;17.83;;;;;;;8.96;82.17;99387.66;5013788;28;20029;-78
2022/04/07 06:33:22;;;;;;;31.83;17.25;;;;;;;9.08;80.86;99395.69;5011967;28;20033;-77
2022/04/07 06:35:51;;;;;;;32.72;17.08;;;;;;;9.28;78.79;99403.94;5013514;28;20041;-78
2022/04/07 06:38:17;;;;;;;32.92;17.10;;;;;;;9.46;77.55;99411.25;5012188;28;20029;-77
2022/04/07 06:40:43;;;;;;;32.90;16.48;;;;;;;9.59;74.80;99411.56;5013448;28;20482;-78
2022/04/07 06:43:08;;;;;;;39.75;16.92;;;;;;;9.66;75.45;99403.13;5012171;28;20030;-78
2022/04/07 06:45:34;;;;;;;34.35;16.48;;;;;;;9.74;73.65;99399.00;5013113;28;20030;-77
2022/04/07 06:47:59;;;;;;;28.85;15.85;;;;;;;9.96;72.20;99402.09;5012991;28;20044;-79
2022/04/07 06:50:25;;;;;;;27.40;15.55;;;;;;;9.87;73.91;99359.78;5013343;28;20044;-78
2022/04/07 06:52:52;;;;;;;27.98;14.95;;;;;;;9.76;71.68;99324.28;5013089;28;20455;-77
2022/04/07 06:55:17;;;;;;;31.33;17.02;;;;;;;10.19;70.78;99384.50;5046882;28;20518;-78
2022/04/07 06:57:51;;;;;;;31.90;16.92;;;;;;;10.34;72.87;99391.69;5052713;28;20040;-78
2022/04/07 07:00:18;;;;;;;25.65;16.17;;;;;;;10.50;70.50;99369.69;5052572;28;20416;-78
2022/04/07 07:02:48;;;;;;;25.27;16.27;;;;;;;10.57;71.06;99361.22;5052577;28;20072;-79
2022/04/07 07:05:14;;;;;;;34.50;15.02;;;;;;;10.77;73.41;99371.94;5052926;28;20036;-77
2022/04/07 07:07:39;;;;;;;30.52;14.65;;;;;;;10.82;68.85;99349.63;5052600;28;20036;-78
2022/04/07 07:10:05;;;;;;;26.88;14.30;;;;;;;11.04;71.39;99356.91;5052737;28;20095;-77
2022/04/07 07:12:30;;;;;;;25.10;13.35;;;;;;;11.15;71.19;99339.84;5052112;28;20025;-78
2022/04/07 07:14:56;;;;;;;23.00;11.07;;;;;;;11.16;66.70;99327.00;5052159;28;20033;-78
2022/04/07 07:17:21;;;;;;;19.67;11.07;;;;;;;11.27;61.70;99331.44;5052420;28;20028;-78
2022/04/07 07:19:47;;;;;;;26.80;10.45;;;;;;;11.29;61.87;99319.41;5052168;28;20112;-78
2022/04/07 07:22:12;;;;;;;17.50;10.00;;;;;;;11.43;62.01;99320.50;5052278;28;20064;-78
2022/04/07 07:24:37;;;;;;;20.65;10.50;;;;;;;11.56;62.14;99312.91;5052309;28;20026;-78
2022/04/07 07:27:03;;;;;;;25.50;10.50;;;;;;;11.63;63.53;99319.91;5052521;28;20029;-78
2022/04/07 07:29:29;;;;;;;23.40;10.90;;;;;;;11.74;61.40;99318.34;5052058;28;20451;-77
2022/04/07 07:31:55;;;;;;;22.50;10.27;;;;;;;11.80;63.39;99321.03;5051684;28;20041;-78
2022/04/07 07:34:20;;;;;;;20.60;11.10;;;;;;;11.85;58.52;99315.03;5052172;28;20107;-78
2022/04/07 07:36:46;;;;;;;21.13;11.40;;;;;;;11.79;58.54;99297.75;5051870;28;20044;-79
2022/04/07 07:39:11;;;;;;;24.00;11.25;;;;;;;11.93;60.32;99300.50;5052058;28;20526;-78
2022/04/07 07:41:38;;;;;;;23.40;11.98;;;;;;;12.01;60.58;99291.13;5052042;28;20458;-77
2022/04/07 07:44:04;;;;;;;21.23;11.80;;;;;;;11.95;59.87;99275.50;5052125;28;20074;-78
2022/04/07 07:46:30;;;;;;;21.02;12.75;;;;;;;11.79;60.06;99241.72;5051574;28;20519;-78
2022/04/07 07:48:56;;;;;;;36.70;13.90;;;;;;;12.10;60.34;99275.72;5034133;28;20021;-78
2022/04/07 07:51:22;;;;;;;21.75;12.15;;;;;;;11.82;58.75;99210.72;5052002;28;20029;-78
2022/04/07 07:53:47;;;;;;;24.17;12.45;;;;;;;12.22;59.73;99258.59;5051644;28;20107;-78
2022/04/07 07:56:12;;;;;;;22.98;11.73;;;;;;;12.38;59.71;99270.84;5051845;28;20029;-78
2022/04/07 07:58:38;;;;;;;23.17;11.93;;;;;;;12.44;59.38;99264.88;5051386;28;20025;-77
2022/04/07 08:01:03;;;;;;;18.08;10.85;;;;;;;12.29;59.72;99227.63;5050459;28;20112;-78
2022/04/07 08:03:29;;;;;;;20.65;9.77;;;;;;;12.59;59.84;99257.22;5051522;28;20033;-77
2022/04/07 08:05:54;;;;;;;22.00;11.20;;;;;;;12.70;58.34;99252.16;5051689;28;20550;-78
2022/04/07 08:08:20;;;;;;;19.38;10.30;;;;;;;12.75;57.92;99247.03;5051547;28;20029;-78
2022/04/07 08:10:45;;;;;;;16.20;9.65;;;;;;;12.72;55.53;99234.03;5051792;28;20033;-78
2022/04/07 08:13:11;;;;;;;22.88;10.45;;;;;;;13.03;53.73;99245.50;5051307;28;20033;-78
2022/04/07 08:15:36;;;;;;;14.65;9.10;;;;;;;13.10;52.15;99231.75;5050841;28;20029;-78
2022/04/07 08:18:03;;;;;;;18.30;9.25;;;;;;;13.17;52.53;99205.88;5051138;28;20040;-78
2022/04/07 08:20:28;;;;;;;14.48;9.45;;;;;;;13.25;51.47;99209.38;5050891;28;20033;-77
2022/04/07 08:22:53;;;;;;;15.68;9.73;;;;;;;13.50;50.04;99209.53;5051304;28;20025;-78
2022/04/07 08:25:19;;;;;;;13.00;8.30;;;;;;;13.56;50.81;99200.06;5051085;28;20032;-78
2022/04/07 08:27:45;;;;;;;14.07;7.70;;;;;;;13.57;49.88;99165.50;5050941;28;20028;-79
2022/04/07 08:30:11;;;;;;;14.90;8.32;;;;;;;13.59;48.60;99143.03;5050904;28;20118;-79
2022/04/07 08:32:36;;;;;;;14.32;8.30;;;;;;;14.01;45.28;99184.63;5050827;28;20075;-78
2022/04/07 08:35:02;;;;;;;12.30;8.00;;;;;;;14.16;45.99;99173.41;5030727;28;20021;-79
2022/04/07 08:37:28;;;;;;;11.32;7.47;;;;;;;14.13;44.83;99151.78;5012454;28;20038;-79
2022/04/07 08:39:53;;;;;;;12.32;7.32;;;;;;;14.21;46.32;99139.69;5041071;28;20021;-79
2022/04/07 08:42:21;;;;;;;12.77;6.47;;;;;;;14.34;46.43;99143.13;5029828;28;20473;-79
2022/04/07 08:44:48;;;;;;;13.40;7.05;;;;;;;14.25;43.63;99125.84;5029875;28;20029;-79
2022/04/07 08:47:18;;;;;;;13.18;6.30;;;;;;;14.37;45.28;99119.78;5012387;28;20022;-78
2022/04/07 08:49:44;;;;;;;11.50;7.45;;;;;;;14.31;46.67;99107.66;5030776;28;20087;-78
2022/04/07 08:52:11;;;;;;;11.07;7.15;;;;;;;14.34;45.11;99092.09;5030587;28;20026;-79
2022/04/07 08:54:37;;;;;;;16.63;7.47;;;;;;;14.53;46.52;99097.28;5030993;28;20045;-78
2022/04/07 08:57:03;;;;;;;13.15;6.18;;;;;;;14.56;46.56;99089.47;5030493;28;20104;-78
2022/04/07 08:59:29;;;;;;;11.25;7.43;;;;;;;14.81;45.96;99073.88;5030556;28;20029;-78
2022/04/07 09:02:05;;;;;;;10.82;6.03;;;;;;;15.04;44.37;99066.84;5030833;28;20025;-79
2022/04/07 09:04:37;;;;;;;10.02;6.22;;;;;;;15.03;45.11;99059.06;5030738;28;20030;-78
2022/04/07 09:07:04;;;;;;;11.23;6.38;;;;;;;14.99;45.28;99058.22;5030480;28;20033;-81
2022/04/07 09:09:36;;;;;;;11.23;6.40;;;;;;;15.10;46.25;99052.97;5029119;28;20038;-76
2022/04/07 09:12:01;;;;;;;11.25;6.60;;;;;;;15.39;48.12;99025.09;5029822;28;20061;-80
2022/04/07 09:14:32;;;;;;;9.65;5.80;;;;;;;15.51;46.07;99025.00;5030224;28;20544;-80
2022/04/07 09:16:58;;;;;;;9.35;5.55;;;;;;;15.37;46.03;98999.94;5030565;28;20049;-80
2022/04/07 09:19:23;;;;;;;12.57;5.70;;;;;;;15.54;47.24;98983.41;5030342;28;20080;-81
2022/04/07 09:22:09;;;;;;;11.98;6.03;;;;;;;15.80;46.96;98998.81;5011734;28;20033;-80
2022/04/07 09:24:39;;;;;;;9.35;5.35;;;;;;;15.89;47.59;98992.69;5029483;28;20033;-80
2022/04/07 09:27:09;;;;;;;12.57;5.85;;;;;;;15.89;46.98;98979.69;5029039;28;20033;-78
2022/04/07 09:29:40;;;;;;;10.38;5.57;;;;;;;16.02;48.15;98985.63;5037768;28;20029;-75
2022/04/07 09:32:26;;;;;;;9.48;5.20;;;;;;;16.16;46.15;98970.75;5030190;28;20014;-76
2022/04/07 09:35:01;;;;;;;9.38;5.45;;;;;;;16.36;44.14;98967.03;5029800;28;20060;-76
2022/04/07 09:37:28;;;;;;;10.85;5.63;;;;;;;16.59;43.63;98958.13;5030597;28;20121;-76
2022/04/07 09:40:16;;;;;;;9.52;5.03;;;;;;;16.71;43.54;98939.75;5030165;28;20409;-76
2022/04/07 09:42:42;;;;;;;11.48;5.47;;;;;;;16.71;42.77;98923.22;5030418;28;20712;-76
2022/04/07 09:45:11;;;;;;;9.25;5.63;;;;;;;16.85;40.65;98941.28;5029922;28;20087;-76
2022/04/07 09:47:44;;;;;;;11.25;5.90;;;;;;;16.95;41.90;98933.38;5030226;28;20500;-77
2022/04/07 09:50:20;;;;;;;8.60;5.10;;;;;;;17.13;42.06;98918.34;5030390;28;20067;-77
2022/04/07 09:53:04;;;;;;;14.43;5.30;;;;;;;17.35;45.09;98925.84;5029963;28;20025;-77
2022/04/07 09:55:34;;;;;;;8.05;4.82;;;;;;;17.34;45.39;98921.53;5029611;28;20099;-75
2022/04/07 09:58:02;;;;;;;10.85;5.75;;;;;;;17.22;43.75;98901.69;5030385;28;20033;-76
2022/04/07 10:00:28;;;;;;;11.65;6.40;;;;;;;16.99;44.90;98871.63;5029981;28;20040;-76
2022/04/07 10:02:54;;;;;;;12.18;6.00;;;;;;;16.74;45.30;98871.94;5042582;28;20017;-74
2022/04/07 10:05:22;;;;;;;17.58;9.95;;;;;;;16.80;48.01;98884.03;5049736;28;20033;-74
2022/04/07 10:07:48;;;;;;;12.55;7.35;;;;;;;16.99;46.28;98884.66;5049637;28;20044;-74
2022/04/07 10:10:14;;;;;;;12.65;5.82;;;;;;;16.79;42.04;98836.25;5049710;28;20037;-73
2022/04/07 10:12:40;;;;;;;12.30;5.30;;;;;;;16.97;43.57;98858.63;5031662;28;20404;-74
2022/04/07 10:15:06;;;;;;;11.50;5.50;;;;;;;16.70;46.78;98846.81;5049976;28;20451;-74
2022/04/07 10:17:35;;;;;;;11.35;6.75;;;;;;;16.56;46.92;98857.44;5049495;28;20028;-75
2022/04/07 10:20:06;;;;;;;17.25;7.40;;;;;;;16.66;46.12;98826.91;5049116;28;20020;-77
2022/04/07 10:22:50;;;;;;;9.52;6.00;;;;;;;16.87;46.67;98853.50;5031310;28;20021;-78
2022/04/07 10:25:17;;;;;;;10.38;5.85;;;;;;;16.72;46.97;98846.78;5052168;28;20079;-77
2022/04/07 10:27:52;;;;;;;14.50;6.75;;;;;;;16.86;44.71;98839.63;5052615;28;20033;-76
2022/04/07 10:30:18;;;;;;;10.48;5.10;;;;;;;17.04;44.77;98841.13;5052591;28;20484;-77
2022/04/07 10:32:56;;;;;;;9.10;5.80;;;;;;;16.97;44.50;98842.09;5052359;28;20028;-77
2022/04/07 10:35:29;;;;;;;14.20;6.30;;;;;;;16.95;45.21;98825.63;5052486;28;20028;-76
2022/04/07 10:37:56;;;;;;;14.55;6.38;;;;;;;17.35;43.60;98840.63;5034474;28;20108;-76
2022/04/07 10:40:32;;;;;;;10.93;4.93;;;;;;;17.64;39.90;98831.41;5017395;28;20040;-76
2022/04/07 10:43:13;;;;;;;12.80;5.63;;;;;;;17.81;41.41;98819.78;5052485;28;20086;-77
2022/04/07 10:45:40;;;;;;;13.13;6.00;;;;;;;17.72;42.26;98815.59;5051956;28;20032;-77
2022/04/07 10:48:20;;;;;;;12.90;5.90;;;;;;;17.48;45.66;98789.09;5052002;28;20542;-76
2022/04/07 10:50:58;;;;;;;14.95;6.82;;;;;;;17.67;44.91;98802.66;5052254;28;20033;-76
2022/04/07 10:53:29;;;;;;;12.43;6.00;;;;;;;17.65;45.41;98800.97;5051980;28;20428;-76
2022/04/07 10:56:10;;;;;;;9.90;5.00;;;;;;;17.74;44.77;98804.25;5051513;28;20025;-75
2022/04/07 10:58:45;;;;;;;13.18;6.07;;;;;;;17.74;43.91;98785.97;5051885;28;20103;-77
2022/04/07 11:01:29;;;;;;;19.60;5.55;;;;;;;17.90;41.54;98786.53;5051807;28;20021;-77
2022/04/07 11:04:25;;;;;;;15.05;5.93;;;;;;;17.98;44.23;98791.66;5051771;28;20504;-78
2022/04/07 11:07:13;;;;;;;14.80;6.03;;;;;;;17.83;40.55;98771.03;5051750;28;20484;-77
2022/04/07 11:09:57;;;;;;;9.75;5.57;;;;;;;17.98;40.60;98796.00;5051562;28;20033;-76
2022/04/07 11:12:44;;;;;;;13.93;5.65;;;;;;;17.96;42.68;98780.38;5051311;28;20393;-78
2022/04/07 11:15:27;;;;;;;16.48;5.70;;;;;;;17.95;42.46;98778.66;5051151;28;20116;-77
2022/04/07 11:17:56;;;;;;;17.95;6.53;;;;;;;17.89;43.99;98763.09;5051256;28;20492;-77
2022/04/07 11:20:26;;;;;;;13.75;5.93;;;;;;;17.85;41.28;98759.69;5051521;28;20546;-75
2022/04/07 11:22:56;;;;;;;16.05;5.68;;;;;;;17.72;43.24;98743.41;5051352;28;20569;-75
2022/04/07 11:25:37;;;;;;;17.02;6.28;;;;;;;17.79;42.90;98734.56;5051996;28;20059;-75
2022/04/07 11:28:17;;;;;;;21.17;6.93;;;;;;;17.81;43.94;98708.44;5051307;28;20017;-75